Terminal Aerodrome Forecast
Issued by NWS

Home | Current Version | Previous Version | Text Only | Print | Product List | Glossary On
Versions: 1 2 3 4 5 6 7 8 9 10 11 12 13 14 15 16 17 18 19 20 21 22 23 24
000
FTUS43 KMQT 211120
TAFSAW
TAF
KSAW 211120Z 2112/2212 23008KT 5SM -SHSN SCT010 OVC035
     FM211500 29012G21KT P6SM -SHSNRA OVC025
     FM220000 29010KT P6SM VCSH OVC025=

USA.gov is the U.S. government's official web portal to all federal, state and local government web resources and services.